Time;durP1;ratioP1;P1;durP2;ratioP2;P2;SDS_P1;SDS_P2;PMS_P1;PMS_P2;Temp;Humidity;BMP_temperature;BMP_pressure;BME280_temperature;BME280_humidity;BME280_pressure;Samples;Min_cycle;Max_cycle;Signal;HPM_P1;HPM_P2
2024/01/28 00:01:00;;;;;;;24.83;8.98;;;;;;;1.79;88.45;101792.16;5037273;28;20061;-84
2024/01/28 00:03:28;;;;;;;32.78;10.35;;;;;;;1.79;88.52;101790.41;5006629;28;20139;-84
2024/01/28 00:05:55;;;;;;;21.65;9.70;;;;;;;1.80;88.29;101788.66;5007868;28;20040;-84
2024/01/28 00:08:25;;;;;;;17.30;8.38;;;;;;;1.76;88.25;101787.00;5032296;28;20079;-84
2024/01/28 00:10:53;;;;;;;22.55;8.55;;;;;;;1.66;87.76;101779.31;5037808;28;20041;-83
2024/01/28 00:13:24;;;;;;;20.83;9.23;;;;;;;1.65;88.12;101771.47;5041907;28;20075;-84
2024/01/28 00:15:55;;;;;;;26.85;10.85;;;;;;;1.69;87.63;101773.16;5052065;28;20095;-84
2024/01/28 00:18:22;;;;;;;45.22;18.02;;;;;;;1.66;88.96;101768.00;5019008;28;20118;-84
2024/01/28 00:20:49;;;;;;;48.90;19.02;;;;;;;1.55;89.47;101762.09;5017693;28;20041;-84
2024/01/28 00:23:16;;;;;;;51.67;20.05;;;;;;;1.50;90.97;101759.56;5021650;28;20492;-84
2024/01/28 00:25:43;;;;;;;45.75;18.25;;;;;;;1.55;89.65;101759.47;5035066;28;20055;-84
2024/01/28 00:28:10;;;;;;;40.50;15.88;;;;;;;1.38;89.46;101751.97;5041054;28;20056;-84
2024/01/28 00:30:37;;;;;;;42.90;15.82;;;;;;;1.39;89.21;101746.69;5038169;28;20052;-84
2024/01/28 00:33:04;;;;;;;64.35;18.58;;;;;;;1.47;88.63;101736.91;5025266;28;20130;-83
2024/01/28 00:35:31;;;;;;;55.45;16.65;;;;;;;1.56;88.87;101733.28;5015148;28;20746;-83
2024/01/28 00:37:59;;;;;;;47.50;12.40;;;;;;;1.55;88.68;101730.66;5037063;28;20411;-84
2024/01/28 00:40:25;;;;;;;39.35;12.43;;;;;;;1.50;88.52;101736.00;5022891;28;20069;-84
2024/01/28 00:42:52;;;;;;;25.75;10.30;;;;;;;1.55;88.21;101728.91;5046521;28;20045;-84
2024/01/28 00:45:19;;;;;;;27.42;9.85;;;;;;;1.54;88.30;101728.97;5014902;28;20133;-84
2024/01/28 00:47:47;;;;;;;21.42;7.32;;;;;;;1.57;88.68;101737.59;5064936;28;20103;-84
2024/01/28 00:50:14;;;;;;;25.05;8.00;;;;;;;1.57;88.97;101727.13;5019693;28;20037;-83
2024/01/28 00:52:41;;;;;;;16.80;7.47;;;;;;;1.45;88.13;101720.41;5029287;28;20132;-83
2024/01/28 00:55:08;;;;;;;20.65;7.53;;;;;;;1.40;88.75;101722.25;5039602;28;20044;-83
2024/01/28 00:57:35;;;;;;;19.83;9.32;;;;;;;1.38;88.90;101728.41;5041944;28;20413;-84
2024/01/28 01:00:04;;;;;;;28.38;11.30;;;;;;;1.49;89.35;101724.66;5027494;28;20052;-84
2024/01/28 01:02:31;;;;;;;25.70;9.75;;;;;;;1.51;89.09;101719.41;5043908;28;20400;-84
2024/01/28 01:04:58;;;;;;;29.52;8.43;;;;;;;1.48;88.98;101719.47;5035319;28;20523;-84
2024/01/28 01:07:27;;;;;;;21.95;9.30;;;;;;;1.40;88.32;101718.75;5017155;28;20041;-83
2024/01/28 01:09:54;;;;;;;42.28;14.82;;;;;;;1.39;88.47;101715.28;5019380;28;20128;-84
2024/01/28 01:12:22;;;;;;;39.30;15.00;;;;;;;1.29;89.44;101716.34;5010498;28;20482;-84
2024/01/28 01:14:49;;;;;;;70.20;16.70;;;;;;;1.26;89.27;101725.13;5031506;28;20048;-84
2024/01/28 01:17:16;;;;;;;97.75;17.45;;;;;;;1.20;90.92;101729.63;5049663;28;20064;-84
2024/01/28 01:19:42;;;;;;;51.25;14.07;;;;;;;1.16;91.41;101733.19;5019465;28;20068;-84
2024/01/28 01:22:10;;;;;;;37.65;14.48;;;;;;;1.18;90.99;101723.56;5021249;28;20038;-84
2024/01/28 01:24:37;;;;;;;39.38;15.32;;;;;;;1.15;91.41;101727.09;5038195;28;20099;-84
2024/01/28 01:27:04;;;;;;;53.28;15.30;;;;;;;1.12;91.09;101723.66;5003173;28;20943;-84
2024/01/28 01:29:31;;;;;;;55.65;15.80;;;;;;;1.10;91.51;101722.84;5024778;28;20046;-84
2024/01/28 01:31:57;;;;;;;34.70;15.00;;;;;;;0.98;91.02;101724.78;5030789;28;20061;-84
2024/01/28 01:34:24;;;;;;;36.03;15.23;;;;;;;0.96;91.18;101726.56;5046529;28;20120;-84
2024/01/28 01:36:51;;;;;;;36.55;14.60;;;;;;;1.00;91.56;101720.41;5023989;28;20077;-84
2024/01/28 01:39:18;;;;;;;49.38;14.85;;;;;;;0.87;91.57;101716.28;5020202;28;20413;-84
2024/01/28 01:41:45;;;;;;;42.10;12.77;;;;;;;0.91;91.95;101717.09;5024226;28;20045;-84
2024/01/28 01:44:12;;;;;;;34.42;12.50;;;;;;;0.98;91.09;101718.72;5050318;28;20049;-84
2024/01/28 01:46:40;;;;;;;28.08;11.98;;;;;;;0.92;91.42;101718.84;5025286;28;20056;-84
2024/01/28 01:49:08;;;;;;;29.20;13.82;;;;;;;0.82;90.30;101713.75;5021199;28;20051;-84
2024/01/28 01:51:35;;;;;;;26.60;12.65;;;;;;;0.79;89.62;101721.66;5043556;28;20112;-84
2024/01/28 01:54:02;;;;;;;24.73;11.82;;;;;;;0.94;88.72;101712.69;5031100;28;20407;-84
2024/01/28 01:56:31;;;;;;;20.65;10.35;;;;;;;0.92;88.59;101718.84;5029212;28;20049;-84
2024/01/28 01:58:58;;;;;;;24.08;11.13;;;;;;;0.93;89.20;101716.16;4984725;28;20493;-84
2024/01/28 02:01:26;;;;;;;26.73;12.60;;;;;;;0.90;89.90;101703.16;5022394;28;20094;-84
2024/01/28 02:03:55;;;;;;;45.50;12.55;;;;;;;0.97;90.39;101702.16;5015272;28;20691;-84
2024/01/28 02:06:22;;;;;;;22.50;11.40;;;;;;;0.88;90.95;101702.31;5035923;28;20127;-84
2024/01/28 02:08:49;;;;;;;19.83;10.40;;;;;;;0.88;89.09;101702.31;5035343;28;20048;-84
2024/01/28 02:11:16;;;;;;;18.70;7.97;;;;;;;0.97;89.19;101701.31;5033958;28;20094;-84
2024/01/28 02:13:43;;;;;;;24.55;8.48;;;;;;;1.01;89.66;101695.94;5007777;28;20133;-84
2024/01/28 02:16:09;;;;;;;20.90;7.75;;;;;;;1.01;89.49;101693.34;5031763;28;20397;-85
2024/01/28 02:18:36;;;;;;;21.05;7.78;;;;;;;1.00;89.01;101686.41;5041950;28;21179;-84
2024/01/28 02:21:03;;;;;;;18.25;9.55;;;;;;;0.98;88.67;101685.56;5049814;28;20119;-84
2024/01/28 02:23:30;;;;;;;20.25;8.93;;;;;;;0.96;89.69;101689.09;5037571;28;20040;-85
2024/01/28 02:25:57;;;;;;;18.75;8.90;;;;;;;0.99;90.47;101684.69;5004634;28;20059;-84
2024/01/28 02:28:23;;;;;;;17.92;9.30;;;;;;;0.84;90.13;101680.59;5016972;28;20643;-84
2024/01/28 02:30:50;;;;;;;14.00;8.05;;;;;;;0.83;88.81;101672.78;5015530;28;20129;-84
2024/01/28 02:33:18;;;;;;;21.25;8.32;;;;;;;0.85;88.26;101668.38;5032092;28;20059;-85
2024/01/28 02:35:45;;;;;;;30.10;10.45;;;;;;;0.79;90.75;101673.69;5035504;28;20053;-84
2024/01/28 02:38:11;;;;;;;39.15;11.48;;;;;;;0.83;91.46;101672.78;5031921;28;20075;-84
2024/01/28 02:40:38;;;;;;;43.33;11.00;;;;;;;0.78;92.69;101678.06;5025872;28;20453;-84
2024/01/28 02:43:06;;;;;;;45.33;12.57;;;;;;;0.67;92.45;101673.94;5054943;28;20048;-84
2024/01/28 02:45:32;;;;;;;34.63;12.07;;;;;;;0.72;92.25;101666.88;5018086;28;20390;-84
2024/01/28 02:47:59;;;;;;;38.38;9.95;;;;;;;0.75;91.49;101669.44;5017840;28;20423;-85
2024/01/28 02:50:26;;;;;;;35.30;12.02;;;;;;;0.73;90.68;101672.06;5038719;28;20133;-84
2024/01/28 02:52:53;;;;;;;30.15;10.48;;;;;;;0.71;90.21;101670.38;4990774;28;20048;-84
2024/01/28 02:55:20;;;;;;;21.48;10.70;;;;;;;0.58;91.09;101667.97;5019679;28;20041;-84
2024/01/28 02:57:47;;;;;;;22.90;9.70;;;;;;;0.53;90.29;101663.72;5009314;28;20074;-84
2024/01/28 03:00:14;;;;;;;19.20;9.95;;;;;;;0.56;89.93;101659.31;5039170;28;20053;-84
2024/01/28 03:02:41;;;;;;;23.85;10.30;;;;;;;0.58;88.99;101667.97;5035842;28;20052;-83
2024/01/28 03:05:11;;;;;;;16.98;9.05;;;;;;;0.51;89.04;101652.44;5038825;28;20044;-84
2024/01/28 03:07:38;;;;;;;20.67;9.30;;;;;;;0.49;89.28;101652.47;5020595;28;20053;-84
2024/01/28 03:10:06;;;;;;;22.25;9.13;;;;;;;0.56;89.83;101658.44;5016572;28;20040;-84
2024/01/28 03:12:34;;;;;;;25.70;10.65;;;;;;;0.60;89.25;101654.88;5039104;28;20079;-84
2024/01/28 03:15:00;;;;;;;18.50;10.65;;;;;;;0.64;89.64;101653.97;5023097;28;20131;-83
2024/01/28 03:17:27;;;;;;;21.23;9.75;;;;;;;0.54;88.86;101655.00;5023452;28;20041;-84
2024/01/28 03:19:54;;;;;;;23.92;9.98;;;;;;;0.49;90.59;101654.22;5026492;28;20048;-84
2024/01/28 03:22:21;;;;;;;53.72;12.65;;;;;;;0.60;89.95;101662.72;5023668;28;20061;-84
2024/01/28 03:24:48;;;;;;;54.70;11.13;;;;;;;0.56;90.66;101661.94;5035640;28;20060;-83
2024/01/28 03:27:15;;;;;;;170.15;15.98;;;;;;;0.47;91.17;101656.84;5042586;28;20049;-84
2024/01/28 03:29:42;;;;;;;23.77;10.25;;;;;;;0.45;91.27;101663.00;5050800;28;20041;-84
2024/01/28 03:32:09;;;;;;;27.52;9.82;;;;;;;0.48;91.41;101668.16;5015966;28;20045;-84
2024/01/28 03:34:36;;;;;;;21.83;9.85;;;;;;;0.40;92.24;101669.16;5026089;28;20053;-84
2024/01/28 03:37:03;;;;;;;35.45;11.70;;;;;;;0.35;92.12;101667.50;5005385;28;20045;-84
2024/01/28 03:39:30;;;;;;;57.97;11.43;;;;;;;0.35;92.04;101667.50;5035911;28;20052;-84
2024/01/28 03:41:57;;;;;;;118.38;13.70;;;;;;;0.41;91.07;101677.88;5025549;28;20578;-84
2024/01/28 03:44:24;;;;;;;26.70;9.43;;;;;;;0.43;90.88;101671.75;5005408;28;20041;-84
2024/01/28 03:46:53;;;;;;;35.20;8.98;;;;;;;0.46;90.33;101678.66;4993993;28;20092;-84
2024/01/28 03:49:20;;;;;;;17.90;8.50;;;;;;;0.36;90.88;101677.94;5033766;28;20052;-84
2024/01/28 03:51:47;;;;;;;19.70;9.25;;;;;;;0.37;90.48;101670.97;5026914;28;20037;-84
2024/01/28 03:54:14;;;;;;;17.67;8.88;;;;;;;0.30;91.24;101667.59;5025737;28;20052;-84
2024/01/28 03:56:41;;;;;;;18.10;9.52;;;;;;;0.42;90.60;101662.16;5034941;28;20049;-84
2024/01/28 03:59:08;;;;;;;16.90;8.82;;;;;;;0.28;90.21;101669.38;5036191;28;20125;-84
2024/01/28 04:01:35;;;;;;;17.02;9.10;;;;;;;0.38;89.93;101667.44;5025110;28;20048;-85
2024/01/28 04:04:02;;;;;;;19.92;8.60;;;;;;;0.33;89.09;101659.72;5011384;28;20525;-84
2024/01/28 04:06:29;;;;;;;17.60;8.30;;;;;;;0.36;89.17;101664.03;5019174;28;20107;-84
2024/01/28 04:08:56;;;;;;;17.05;7.85;;;;;;;0.34;88.84;101656.22;5031532;28;20368;-84
2024/01/28 04:11:27;;;;;;;20.40;8.95;;;;;;;0.25;87.50;101650.25;5040111;28;20041;-84
2024/01/28 04:13:55;;;;;;;13.43;7.75;;;;;;;0.31;87.51;101640.59;5048100;28;20049;-84
2024/01/28 04:16:22;;;;;;;12.32;7.32;;;;;;;0.46;87.41;101652.53;5041221;28;20132;-84
2024/01/28 04:18:50;;;;;;;17.15;8.40;;;;;;;0.29;88.17;101644.13;4997642;28;20135;-84
2024/01/28 04:21:17;;;;;;;13.77;7.95;;;;;;;0.44;87.18;101646.47;5024233;28;20436;-85
2024/01/28 04:23:46;;;;;;;16.35;7.55;;;;;;;0.43;88.29;101648.22;5022032;28;20106;-84
2024/01/28 04:26:13;;;;;;;18.60;8.13;;;;;;;0.34;88.41;101650.13;5023848;28;20037;-83
2024/01/28 04:28:41;;;;;;;16.13;7.85;;;;;;;0.33;89.07;101664.94;5018952;28;20111;-84
2024/01/28 04:31:08;;;;;;;11.40;6.75;;;;;;;0.28;89.24;101664.16;5030075;28;20128;-84
2024/01/28 04:33:35;;;;;;;23.45;8.23;;;;;;;0.34;88.82;101655.34;5053146;28;20128;-84
2024/01/28 04:36:02;;;;;;;15.85;7.78;;;;;;;0.33;88.88;101656.22;5046860;28;20045;-84
2024/01/28 04:38:29;;;;;;;16.02;8.05;;;;;;;0.25;88.08;101656.34;5038505;28;20049;-83
2024/01/28 04:40:55;;;;;;;15.07;7.82;;;;;;;0.28;88.12;101653.72;5014342;28;20391;-83
2024/01/28 04:43:22;;;;;;;13.13;7.20;;;;;;;0.31;88.75;101660.63;5019470;28;20121;-84
2024/01/28 04:45:49;;;;;;;18.77;7.88;;;;;;;0.37;88.51;101652.69;5021698;28;20096;-83
2024/01/28 04:48:18;;;;;;;14.15;6.50;;;;;;;0.34;87.66;101647.50;5049461;28;20128;-83
2024/01/28 04:50:45;;;;;;;16.50;7.07;;;;;;;0.28;88.14;101644.97;5034117;28;20049;-83
2024/01/28 04:53:12;;;;;;;11.13;5.70;;;;;;;0.27;87.33;101645.88;5019989;28;20038;-83
2024/01/28 04:55:39;;;;;;;18.48;6.78;;;;;;;0.21;87.75;101646.84;5008479;28;20079;-83
2024/01/28 04:58:07;;;;;;;12.23;6.15;;;;;;;0.33;88.22;101646.66;5032875;28;20051;-83
2024/01/28 05:00:34;;;;;;;10.20;5.40;;;;;;;0.30;87.10;101643.22;5036896;28;20488;-84
2024/01/28 05:03:01;;;;;;;17.45;6.05;;;;;;;0.24;87.72;101644.19;5017210;28;20049;-84
2024/01/28 05:05:28;;;;;;;10.88;6.20;;;;;;;0.25;87.98;101632.84;5044352;28;20045;-84
2024/01/28 05:07:55;;;;;;;17.20;7.15;;;;;;;0.36;88.47;101641.38;5009593;28;20186;-85
2024/01/28 05:10:22;;;;;;;14.82;6.97;;;;;;;0.28;89.38;101645.88;5029505;28;20049;-84
2024/01/28 05:12:48;;;;;;;15.23;7.63;;;;;;;0.28;89.93;101632.81;5002400;28;20049;-84
2024/01/28 05:15:16;;;;;;;14.50;6.82;;;;;;;0.29;89.44;101633.66;5041481;28;20044;-84
2024/01/28 05:17:44;;;;;;;15.73;6.95;;;;;;;0.21;87.88;101637.25;5022231;28;20037;-84
2024/01/28 05:20:12;;;;;;;13.95;6.43;;;;;;;0.27;88.97;101638.03;4992731;28;20041;-84
2024/01/28 05:22:39;;;;;;;15.23;7.07;;;;;;;0.24;88.30;101630.25;5032663;28;20052;-84
2024/01/28 05:25:06;;;;;;;11.93;6.82;;;;;;;0.25;88.27;101629.38;5023627;28;20118;-84
2024/01/28 05:27:34;;;;;;;14.90;7.07;;;;;;;0.21;88.53;101641.63;5010001;28;20049;-83
2024/01/28 05:30:01;;;;;;;13.55;7.13;;;;;;;0.22;88.72;101636.34;5022004;28;20473;-84
2024/01/28 05:32:28;;;;;;;13.52;6.10;;;;;;;0.15;87.34;101641.72;5048210;28;20113;-83
2024/01/28 05:35:03;;;;;;;12.43;6.50;;;;;;;0.25;87.97;101635.44;5042984;28;20522;-83
2024/01/28 05:37:30;;;;;;;15.70;6.88;;;;;;;0.25;87.34;101643.28;5001740;28;20041;-83
2024/01/28 05:39:57;;;;;;;13.25;6.75;;;;;;;0.19;87.67;101639.03;5023114;28;20051;-83
2024/01/28 05:42:24;;;;;;;10.95;5.40;;;;;;;0.27;88.72;101632.81;5008704;28;20064;-84
2024/01/28 05:44:51;;;;;;;13.88;6.70;;;;;;;0.32;88.27;101633.59;5038187;28;20527;-83
2024/01/28 05:47:18;;;;;;;15.50;6.30;;;;;;;0.35;89.25;101628.31;5055472;28;20401;-83
2024/01/28 05:49:44;;;;;;;18.23;7.97;;;;;;;0.31;88.86;101630.13;5023608;28;20128;-83
2024/01/28 05:52:11;;;;;;;17.80;6.43;;;;;;;0.55;89.45;101634.06;5037911;28;20580;-83
2024/01/28 05:54:42;;;;;;;15.70;6.68;;;;;;;0.57;89.52;101634.88;5031262;28;20456;-83
2024/01/28 05:57:10;;;;;;;14.43;6.90;;;;;;;0.53;89.59;101630.59;5022561;28;20099;-83
2024/01/28 05:59:37;;;;;;;16.60;6.65;;;;;;;0.65;89.21;101629.53;5035137;28;20504;-84
2024/01/28 06:02:04;;;;;;;15.15;8.05;;;;;;;0.58;88.38;101634.00;5034784;28;20104;-83
2024/01/28 06:04:30;;;;;;;17.17;7.13;;;;;;;0.65;88.63;101634.75;5022438;28;20095;-84
2024/01/28 06:06:58;;;;;;;13.90;6.50;;;;;;;0.61;88.44;101627.84;5031165;28;20100;-84
2024/01/28 06:09:26;;;;;;;14.35;6.38;;;;;;;0.62;88.53;101625.22;5032499;28;20053;-83
2024/01/28 06:11:53;;;;;;;17.45;6.65;;;;;;;0.73;88.92;101632.00;5044700;28;20120;-84
2024/01/28 06:14:20;;;;;;;14.65;6.55;;;;;;;0.76;88.93;101629.31;5038752;28;20116;-85
2024/01/28 06:16:47;;;;;;;14.95;6.60;;;;;;;0.84;88.77;101625.69;5029253;28;20041;-84
2024/01/28 06:19:13;;;;;;;14.55;6.75;;;;;;;0.70;88.82;101624.22;5048609;28;20073;-84
2024/01/28 06:21:41;;;;;;;13.20;7.25;;;;;;;0.73;88.62;101622.38;5036047;28;20436;-84
2024/01/28 06:24:07;;;;;;;15.50;6.47;;;;;;;0.73;88.19;101621.53;5006945;28;20045;-84
2024/01/28 06:26:36;;;;;;;14.68;6.68;;;;;;;0.64;88.23;101626.06;5047271;28;20049;-84
2024/01/28 06:29:03;;;;;;;14.32;7.03;;;;;;;0.67;88.32;101624.28;5029814;28;20515;-84
2024/01/28 06:31:30;;;;;;;18.02;6.75;;;;;;;0.55;88.53;101618.38;5024875;28;20120;-84
2024/01/28 06:33:57;;;;;;;17.45;7.10;;;;;;;0.45;88.76;101623.78;4985002;28;20038;-84
2024/01/28 06:36:24;;;;;;;17.40;6.97;;;;;;;0.61;88.88;101627.84;5023554;28;20079;-84
2024/01/28 06:38:51;;;;;;;16.83;6.53;;;;;;;0.51;89.43;101626.28;5006507;28;20542;-84
2024/01/28 06:41:17;;;;;;;16.25;7.13;;;;;;;0.48;88.90;101627.19;5031056;28;20607;-84
2024/01/28 06:43:44;;;;;;;15.50;6.78;;;;;;;0.37;89.12;101629.16;5005864;28;20040;-85
2024/01/28 06:46:16;;;;;;;12.40;6.53;;;;;;;0.29;89.06;101624.06;5031027;28;20045;-85
2024/01/28 06:48:43;;;;;;;13.80;6.55;;;;;;;0.22;88.79;101628.53;5022594;28;20088;-84
2024/01/28 06:51:10;;;;;;;15.05;7.47;;;;;;;0.24;88.36;101630.25;5007721;28;20079;-83
2024/01/28 06:53:37;;;;;;;14.80;7.25;;;;;;;0.27;87.93;101627.59;5026732;28;20137;-84
2024/01/28 06:56:04;;;;;;;11.95;6.47;;;;;;;0.23;88.17;101626.78;5043080;28;20069;-84
2024/01/28 06:58:31;;;;;;;16.42;7.47;;;;;;;0.22;88.06;101625.06;5051310;28;20056;-84
2024/01/28 07:00:58;;;;;;;15.85;7.20;;;;;;;0.21;87.64;101625.94;5053441;28;20552;-84
2024/01/28 07:03:25;;;;;;;15.55;7.50;;;;;;;0.16;88.02;101628.63;5026309;28;20041;-84
2024/01/28 07:05:52;;;;;;;14.10;6.63;;;;;;;0.09;87.53;101631.38;5037033;28;20048;-84
2024/01/28 07:08:18;;;;;;;17.92;7.55;;;;;;;0.16;88.01;101628.63;5017605;28;20112;-85
2024/01/28 07:10:45;;;;;;;17.95;7.32;;;;;;;0.09;87.65;101634.84;5035765;28;20098;-84
2024/01/28 07:13:12;;;;;;;15.45;7.80;;;;;;;0.08;88.01;101629.66;4995832;28;20037;-84
2024/01/28 07:15:39;;;;;;;18.05;8.57;;;;;;;0.05;87.90;101621.84;5043180;28;20060;-85
2024/01/28 07:18:07;;;;;;;22.25;9.27;;;;;;;0.15;88.03;101632.16;5027372;28;20056;-84
2024/01/28 07:20:34;;;;;;;34.45;12.30;;;;;;;0.17;88.55;101627.75;5005618;28;20063;-87
2024/01/28 07:23:00;;;;;;;35.88;14.05;;;;;;;0.17;88.49;101627.75;5027758;28;20059;-87
2024/01/28 07:25:27;;;;;;;76.45;25.63;;;;;;;0.32;88.64;101628.38;5051953;28;20044;-86
2024/01/28 07:27:54;;;;;;;39.47;16.67;;;;;;;0.39;88.87;101630.00;5005316;28;20099;-87
2024/01/28 07:30:22;;;;;;;28.65;11.77;;;;;;;0.30;88.32;101633.63;5008252;28;20038;-86
2024/01/28 07:32:48;;;;;;;14.75;8.32;;;;;;;0.22;88.14;101638.97;5028578;28;20095;-87
2024/01/28 07:35:15;;;;;;;20.52;9.50;;;;;;;0.25;89.09;101642.44;5042918;28;20098;-83
2024/01/28 07:37:42;;;;;;;18.17;9.00;;;;;;;0.21;88.93;101637.25;5036173;28;20045;-83
2024/01/28 07:40:10;;;;;;;18.90;9.77;;;;;;;0.29;89.51;101631.91;5035964;28;20049;-82
2024/01/28 07:42:37;;;;;;;21.45;11.43;;;;;;;0.37;89.49;101634.38;5019907;28;20065;-83
2024/01/28 07:45:04;;;;;;;19.05;9.00;;;;;;;0.30;89.65;101638.84;5021741;28;20420;-83
2024/01/28 07:47:31;;;;;;;18.92;9.20;;;;;;;0.33;90.07;101637.94;5007732;28;20460;-83
2024/01/28 07:49:59;;;;;;;15.52;8.73;;;;;;;0.33;90.47;101640.53;5036283;28;20041;-82
2024/01/28 07:52:26;;;;;;;32.00;15.20;;;;;;;0.25;91.53;101632.84;5048623;28;20064;-84
2024/01/28 07:54:53;;;;;;;18.02;9.20;;;;;;;0.29;91.22;101631.06;5049413;28;20041;-82
2024/01/28 07:57:21;;;;;;;15.13;7.65;;;;;;;0.39;91.02;101643.06;5016934;28;20053;-83
2024/01/28 07:59:49;;;;;;;19.70;8.80;;;;;;;0.49;90.89;101638.56;5011159;28;20433;-83
2024/01/28 08:02:16;;;;;;;20.17;9.50;;;;;;;0.52;91.12;101641.09;5024556;28;20052;-83
2024/01/28 08:04:44;;;;;;;17.55;8.80;;;;;;;0.59;90.76;101635.72;5023904;28;20555;-82
2024/01/28 08:07:11;;;;;;;18.15;9.50;;;;;;;0.61;90.73;101627.84;5030831;28;20060;-82
2024/01/28 08:09:40;;;;;;;23.23;9.23;;;;;;;0.65;91.28;101626.91;5006725;28;20052;-82
2024/01/28 08:12:07;;;;;;;16.77;8.00;;;;;;;0.64;91.42;101619.97;5008854;28;20052;-83
2024/01/28 08:14:34;;;;;;;20.27;8.90;;;;;;;0.72;91.20;101628.53;5036752;28;20055;-82
2024/01/28 08:17:00;;;;;;;23.40;9.48;;;;;;;0.79;91.18;101624.91;5023190;28;20052;-83
2024/01/28 08:19:27;;;;;;;20.70;8.32;;;;;;;0.85;90.85;101616.94;5021651;28;20128;-83
2024/01/28 08:21:54;;;;;;;21.92;8.52;;;;;;;0.89;91.45;101620.38;5048495;28;20114;-82
2024/01/28 08:24:21;;;;;;;17.17;9.05;;;;;;;0.93;91.25;101624.63;5007173;28;20048;-82
2024/01/28 08:26:48;;;;;;;23.80;8.68;;;;;;;0.98;91.40;101624.53;5033816;28;20076;-83
2024/01/28 08:29:15;;;;;;;20.63;9.38;;;;;;;1.04;90.69;101621.78;5008068;28;20541;-83
2024/01/28 08:31:42;;;;;;;26.40;9.68;;;;;;;0.98;92.05;101620.16;5039480;28;20044;-82
2024/01/28 08:34:08;;;;;;;17.88;8.77;;;;;;;1.00;91.06;101618.38;5021612;28;20045;-82
2024/01/28 08:36:35;;;;;;;21.40;9.60;;;;;;;1.08;90.25;101615.59;5009903;28;20573;-83
2024/01/28 08:39:04;;;;;;;20.90;9.65;;;;;;;1.08;90.16;101613.84;5021859;28;20060;-83
2024/01/28 08:41:31;;;;;;;22.48;9.65;;;;;;;1.02;90.08;101616.59;5018863;28;20102;-82
2024/01/28 08:44:04;;;;;;;21.90;9.05;;;;;;;1.06;90.26;101617.38;5037204;28;20128;-82
2024/01/28 08:46:30;;;;;;;21.13;10.27;;;;;;;1.09;90.85;101622.56;5051232;28;20041;-82
2024/01/28 08:48:57;;;;;;;24.75;10.80;;;;;;;1.11;90.75;101620.78;5009446;28;20040;-83
2024/01/28 08:51:24;;;;;;;27.25;10.45;;;;;;;1.18;90.51;101631.97;5012976;28;20373;-83
2024/01/28 08:53:51;;;;;;;26.60;10.68;;;;;;;1.22;90.78;101629.28;5039970;28;20048;-83
2024/01/28 08:56:18;;;;;;;22.63;9.93;;;;;;;1.29;90.67;101627.38;5049143;28;20046;-82
2024/01/28 08:58:45;;;;;;;23.35;10.38;;;;;;;1.32;90.86;101632.53;5020977;28;20041;-82
2024/01/28 09:01:13;;;;;;;22.60;10.15;;;;;;;1.33;90.97;101629.03;5028912;28;20045;-82
2024/01/28 09:03:40;;;;;;;24.90;10.95;;;;;;;1.35;90.60;101629.88;5006089;28;20040;-81
2024/01/28 09:06:07;;;;;;;21.50;9.32;;;;;;;1.31;90.84;101622.97;5038982;28;20048;-82
2024/01/28 09:08:34;;;;;;;31.70;10.60;;;;;;;1.40;90.60;101622.78;5045784;28;20044;-81
2024/01/28 09:11:01;;;;;;;20.73;9.85;;;;;;;1.42;90.60;101628.81;5005590;28;20914;-81
2024/01/28 09:13:28;;;;;;;22.80;10.20;;;;;;;1.47;90.44;101628.72;5046801;28;20045;-81
2024/01/28 09:15:55;;;;;;;28.95;11.02;;;;;;;1.50;90.51;101619.06;5017668;28;21212;-82
2024/01/28 09:18:22;;;;;;;18.23;9.48;;;;;;;1.56;90.33;101625.06;5032078;28;20052;-81
2024/01/28 09:20:48;;;;;;;34.55;13.10;;;;;;;1.59;90.96;101620.63;5020591;28;20232;-82
2024/01/28 09:23:15;;;;;;;43.13;16.70;;;;;;;1.65;90.83;101624.84;5008087;28;20044;-82
2024/01/28 09:25:42;;;;;;;89.82;28.55;;;;;;;1.61;91.31;101628.44;5032859;28;20042;-81
2024/01/28 09:28:09;;;;;;;74.72;24.27;;;;;;;1.68;90.93;101627.38;5014933;28;20124;-81
2024/01/28 09:30:36;;;;;;;56.47;20.35;;;;;;;1.67;91.15;101623.91;5029630;28;20038;-82
2024/01/28 09:33:03;;;;;;;67.43;21.67;;;;;;;1.68;91.56;101625.66;5043738;28;20073;-81
2024/01/28 09:35:31;;;;;;;68.78;24.60;;;;;;;1.73;91.37;101622.91;5054371;28;20602;-81
2024/01/28 09:37:58;;;;;;;67.65;23.30;;;;;;;1.75;91.93;101628.97;5062089;28;20050;-81
2024/01/28 09:40:25;;;;;;;25.45;10.63;;;;;;;1.80;91.17;101631.50;5035231;28;20052;-81
2024/01/28 09:43:10;;;;;;;89.68;30.23;;;;;;;1.83;90.99;101624.44;5066186;28;20128;-82
2024/01/28 09:45:36;;;;;;;39.55;15.02;;;;;;;1.87;91.04;101620.84;5018184;28;20057;-81
2024/01/28 09:48:04;;;;;;;28.00;11.27;;;;;;;1.92;91.27;101620.72;5023201;28;20374;-81
2024/01/28 09:50:31;;;;;;;35.50;14.95;;;;;;;1.88;91.45;101627.81;5063286;28;20063;-82
2024/01/28 09:53:02;;;;;;;34.55;13.70;;;;;;;1.94;91.51;101632.91;5048112;28;20536;-81
2024/01/28 09:55:29;;;;;;;55.20;18.40;;;;;;;1.95;91.53;101621.50;5027738;28;20138;-82
2024/01/28 09:57:56;;;;;;;45.08;17.88;;;;;;;1.99;91.54;101632.78;5067389;28;20100;-81
2024/01/28 10:00:23;;;;;;;56.70;24.00;;;;;;;2.04;91.19;101633.53;5009618;28;20508;-82
2024/01/28 10:02:50;;;;;;;44.35;17.95;;;;;;;2.08;91.53;101631.69;5007121;28;20103;-83
2024/01/28 10:05:17;;;;;;;28.60;12.25;;;;;;;2.11;91.03;101632.50;5017952;28;20049;-82
2024/01/28 10:07:47;;;;;;;37.25;16.83;;;;;;;2.14;90.87;101631.56;5034932;28;20041;-82
2024/01/28 10:10:16;;;;;;;25.73;11.98;;;;;;;2.13;91.23;101629.81;5034715;28;20042;-82
2024/01/28 10:12:49;;;;;;;23.65;10.50;;;;;;;2.21;91.05;101627.00;5048193;28;20458;-82
2024/01/28 10:15:18;;;;;;;24.10;11.15;;;;;;;2.26;91.08;101625.13;5002638;28;20083;-82
2024/01/28 10:17:48;;;;;;;21.60;11.07;;;;;;;2.29;90.92;101628.56;5025301;28;20396;-82
2024/01/28 10:20:28;;;;;;;24.45;9.82;;;;;;;2.33;90.59;101627.56;5035541;28;20815;-82
2024/01/28 10:22:55;;;;;;;25.58;10.43;;;;;;;2.32;90.76;101620.59;5059251;28;20071;-87
2024/01/28 10:25:22;;;;;;;22.48;9.60;;;;;;;2.35;90.86;101620.53;5010930;28;20049;-89
2024/01/28 10:27:49;;;;;;;28.70;12.00;;;;;;;2.38;90.49;101620.44;5041241;28;20095;-89
2024/01/28 10:30:18;;;;;;;23.08;10.52;;;;;;;2.46;90.12;101624.63;5035787;28;20389;-90
2024/01/28 10:32:46;;;;;;;31.00;12.02;;;;;;;2.45;90.42;101618.53;5010324;28;20055;-89
2024/01/28 10:35:16;;;;;;;32.83;11.18;;;;;;;2.48;90.84;101623.69;5037941;28;20044;-89
2024/01/28 10:37:52;;;;;;;26.23;10.48;;;;;;;2.55;90.50;101613.91;5038760;28;20501;-89
2024/01/28 10:40:19;;;;;;;47.20;16.63;;;;;;;2.56;90.20;101616.47;5031919;28;20068;-90
2024/01/28 10:42:49;;;;;;;22.70;9.00;;;;;;;2.65;90.06;101607.50;5011097;28;20041;-89
2024/01/28 10:45:18;;;;;;;55.30;21.60;;;;;;;2.64;89.88;101600.53;5026638;28;20052;-89
2024/01/28 10:47:50;;;;;;;47.00;21.65;;;;;;;2.64;89.87;101594.44;5000688;28;20041;-89
2024/01/28 10:50:19;;;;;;;22.27;10.30;;;;;;;2.66;89.69;101584.75;5047551;28;20045;-89
2024/01/28 10:52:47;;;;;;;23.15;11.93;;;;;;;2.72;89.52;101580.22;5035006;28;20042;-88
2024/01/28 10:55:18;;;;;;;17.77;9.20;;;;;;;2.78;89.36;101579.19;5005127;28;20042;-89
2024/01/28 10:57:46;;;;;;;23.42;9.57;;;;;;;2.78;89.64;101576.56;5034487;28;20148;-90
2024/01/28 11:00:16;;;;;;;21.33;9.02;;;;;;;2.89;89.43;101574.47;5003253;28;20073;-90
2024/01/28 11:02:43;;;;;;;21.55;9.48;;;;;;;2.94;88.96;101584.84;5006436;28;20048;-90
2024/01/28 11:05:11;;;;;;;17.55;9.00;;;;;;;2.95;89.56;101578.69;5039552;28;20783;-90
2024/01/28 11:07:38;;;;;;;22.50;9.55;;;;;;;2.97;89.26;101577.72;5028100;28;20045;-89
2024/01/28 11:10:10;;;;;;;19.25;9.40;;;;;;;3.03;89.51;101576.72;5018102;28;20075;-90
2024/01/28 11:12:39;;;;;;;17.17;10.13;;;;;;;3.06;89.59;101576.63;5001276;28;20053;-88
2024/01/28 11:15:11;;;;;;;19.70;8.88;;;;;;;3.11;88.13;101574.72;5020520;28;20129;-89
2024/01/28 11:17:38;;;;;;;21.50;9.57;;;;;;;3.15;89.04;101568.47;5023749;28;20674;-89
2024/01/28 11:20:09;;;;;;;25.08;11.02;;;;;;;3.18;89.20;101562.25;5005673;28;20080;-89
2024/01/28 11:23:04;;;;;;;27.42;12.10;;;;;;;3.20;89.35;101560.44;5022265;28;20428;-89